createdAt,value
2019-02-18T00:00:38.154Z,65.60
2019-02-18T00:03:43.616Z,65.60
2019-02-18T00:06:48.573Z,65.70
2019-02-18T00:09:53.683Z,65.80
2019-02-18T00:12:58.658Z,65.80
2019-02-18T00:16:03.581Z,66.00
2019-02-18T00:19:08.493Z,66.20
2019-02-18T00:22:13.446Z,66.30
2019-02-18T00:25:18.630Z,66.70
2019-02-18T00:28:23.928Z,66.60
2019-02-18T00:31:29.326Z,66.60
2019-02-18T00:34:34.369Z,66.30
2019-02-18T00:37:39.449Z,66.10
2019-02-18T00:40:45.424Z,65.80
2019-02-18T00:43:50.688Z,65.80
2019-02-18T00:46:55.611Z,65.90
2019-02-18T00:50:00.489Z,65.80
2019-02-18T00:53:05.386Z,66.20
2019-02-18T00:56:10.438Z,66.40
2019-02-18T00:59:15.527Z,66.60
2019-02-18T01:02:20.629Z,66.80
2019-02-18T01:05:25.823Z,66.90
2019-02-18T01:08:30.780Z,67.00
2019-02-18T01:11:35.895Z,67.20
2019-02-18T01:14:40.842Z,67.30
2019-02-18T01:17:46.055Z,67.40
2019-02-18T01:20:51.317Z,67.60
2019-02-18T01:23:56.325Z,67.70
2019-02-18T01:27:01.221Z,67.70
2019-02-18T01:30:07.749Z,67.40
2019-02-18T01:33:12.829Z,67.60
2019-02-18T01:36:18.096Z,67.80
2019-02-18T01:39:23.012Z,68.10
2019-02-18T01:42:28.108Z,68.00
2019-02-18T01:45:33.113Z,68.90
2019-02-18T01:48:38.041Z,68.40
2019-02-18T01:51:43.070Z,68.50
2019-02-18T01:54:48.111Z,68.50
2019-02-18T01:57:53.251Z,68.60
2019-02-18T02:00:58.218Z,68.80
2019-02-18T02:04:03.605Z,69.00
2019-02-18T02:07:08.800Z,69.00
2019-02-18T02:10:15.171Z,68.80
2019-02-18T02:13:33.551Z,68.80
2019-02-18T02:16:38.452Z,68.80
2019-02-18T02:19:43.592Z,69.00
2019-02-18T02:22:48.443Z,69.20
2019-02-18T02:25:53.597Z,69.20
2019-02-18T02:28:58.595Z,69.40
2019-02-18T02:32:03.648Z,69.40
2019-02-18T02:35:09.045Z,69.50
2019-02-18T02:38:14.110Z,70.00
2019-02-18T02:41:37.976Z,70.00
2019-02-18T02:44:43.039Z,69.70
2019-02-18T02:47:48.306Z,70.00
2019-02-18T02:50:53.325Z,70.00
2019-02-18T02:53:58.577Z,70.00
2019-02-18T02:57:03.806Z,69.90
2019-02-18T03:00:10.104Z,69.90
2019-02-18T03:03:15.105Z,69.90
2019-02-18T03:06:20.248Z,69.90
2019-02-18T03:09:25.198Z,70.00
2019-02-18T03:12:30.332Z,70.00
2019-02-18T03:15:35.179Z,69.80
2019-02-18T03:18:40.116Z,69.90
2019-02-18T03:21:45.054Z,69.80
2019-02-18T03:25:24.219Z,69.80
2019-02-18T03:29:03.598Z,69.90
2019-02-18T03:32:08.787Z,69.70
2019-02-18T03:35:13.850Z,69.80
2019-02-18T03:38:19.061Z,69.70
2019-02-18T03:41:23.968Z,69.70
2019-02-18T03:44:29.130Z,70.10
2019-02-18T03:47:34.056Z,70.10
2019-02-18T03:50:38.939Z,70.30
2019-02-18T03:53:43.845Z,70.30
2019-02-18T03:56:48.902Z,70.50
2019-02-18T03:59:54.032Z,70.50
2019-02-18T04:03:17.794Z,70.50
2019-02-18T04:06:22.751Z,70.40
2019-02-18T04:09:27.668Z,70.70
2019-02-18T04:12:32.595Z,71.00
2019-02-18T04:15:37.741Z,71.40
2019-02-18T04:18:42.677Z,71.50
2019-02-18T04:21:47.756Z,71.40
2019-02-18T04:24:52.677Z,71.40
2019-02-18T04:27:57.780Z,71.60
2019-02-18T04:31:02.725Z,71.60
2019-02-18T04:34:07.700Z,71.60
2019-02-18T04:37:12.697Z,71.80
2019-02-18T04:40:17.859Z,71.70
2019-02-18T04:43:22.771Z,71.70
2019-02-18T04:46:28.017Z,71.50
2019-02-18T04:49:33.265Z,71.50
2019-02-18T04:52:38.329Z,71.70
2019-02-18T04:55:43.535Z,71.70
2019-02-18T04:58:48.580Z,71.50
2019-02-18T05:01:53.647Z,71.40
2019-02-18T05:04:58.615Z,71.40
2019-02-18T05:08:03.605Z,71.40
2019-02-18T05:11:08.894Z,71.50
2019-02-18T05:14:14.177Z,71.50
2019-02-18T05:17:19.159Z,71.50
2019-02-18T05:20:24.101Z,71.30
2019-02-18T05:23:29.329Z,71.30
2019-02-18T05:26:34.554Z,71.40
2019-02-18T05:29:39.548Z,71.50
2019-02-18T05:32:44.619Z,71.70
2019-02-18T05:35:50.023Z,71.80
2019-02-18T05:38:54.851Z,71.70
2019-02-18T05:41:59.926Z,71.70
2019-02-18T05:45:05.045Z,72.00
2019-02-18T05:48:10.397Z,72.10
2019-02-18T05:51:15.404Z,72.30
2019-02-18T05:54:20.646Z,72.30
2019-02-18T05:57:25.708Z,72.30
2019-02-18T06:00:30.916Z,72.50
2019-02-18T06:03:36.397Z,72.40
2019-02-18T06:06:41.441Z,72.50
2019-02-18T06:09:46.529Z,72.70
2019-02-18T06:12:51.498Z,73.00
2019-02-18T06:15:56.603Z,73.20
2019-02-18T06:19:01.613Z,73.10
2019-02-18T06:22:06.676Z,73.00
2019-02-18T06:25:11.657Z,72.90
2019-02-18T06:28:16.572Z,72.50
2019-02-18T06:31:21.433Z,72.30
2019-02-18T06:34:26.363Z,72.00
2019-02-18T06:37:31.310Z,71.70
2019-02-18T06:40:36.317Z,71.70
2019-02-18T06:43:41.473Z,71.40
2019-02-18T06:46:56.760Z,71.60
2019-02-18T06:50:01.976Z,71.40
2019-02-18T06:53:06.949Z,71.20
2019-02-18T06:56:11.997Z,71.20
2019-02-18T06:59:23.372Z,71.00
2019-02-18T07:02:46.285Z,70.80
2019-02-18T07:06:07.850Z,70.30
2019-02-18T07:09:31.810Z,69.60
2019-02-18T07:12:40.210Z,69.70
2019-02-18T07:15:45.110Z,69.70
2019-02-18T07:18:50.122Z,69.80
2019-02-18T07:21:55.060Z,69.60
2019-02-18T07:24:59.984Z,69.40
2019-02-18T07:28:04.917Z,69.20
2019-02-18T07:31:09.799Z,68.90
2019-02-18T07:34:14.996Z,68.50
2019-02-18T07:37:19.922Z,68.10
2019-02-18T07:40:25.083Z,67.80
2019-02-18T07:43:31.034Z,67.20
2019-02-18T07:46:36.186Z,66.30
2019-02-18T07:49:41.126Z,65.40
2019-02-18T07:52:46.256Z,64.60
2019-02-18T07:55:51.230Z,64.10
2019-02-18T07:58:56.320Z,64.30
2019-02-18T08:02:01.289Z,64.40
2019-02-18T08:05:06.341Z,64.50
2019-02-18T08:08:11.402Z,64.20
2019-02-18T08:11:16.433Z,64.30
2019-02-18T08:14:23.600Z,64.10
2019-02-18T08:17:28.640Z,63.70
2019-02-18T08:20:33.851Z,63.70
2019-02-18T08:23:38.914Z,63.50
2019-02-18T08:26:44.247Z,63.10
2019-02-18T08:29:49.157Z,62.70
2019-02-18T08:32:54.135Z,62.50
2019-02-18T08:35:59.076Z,61.90
2019-02-18T08:39:05.355Z,61.80
2019-02-18T08:42:10.378Z,61.00
2019-02-18T08:45:15.640Z,60.50
2019-02-18T08:48:20.624Z,59.80
2019-02-18T08:51:25.593Z,59.30
2019-02-18T08:54:30.440Z,58.40
2019-02-18T08:57:35.638Z,57.60
2019-02-18T09:00:40.689Z,56.80
2019-02-18T09:03:45.644Z,53.80
2019-02-18T09:06:50.622Z,47.50
2019-02-18T09:09:55.542Z,35.60
2019-02-18T09:13:00.560Z,29.70
2019-02-18T09:16:05.566Z,25.50
2019-02-18T09:19:10.567Z,21.20
2019-02-18T09:22:49.883Z,19.20
2019-02-18T09:25:58.020Z,17.10
2019-02-18T09:29:02.815Z,15.90
2019-02-18T09:32:07.949Z,14.80
2019-02-18T09:35:12.896Z,14.00
2019-02-18T09:38:24.996Z,13.60
2019-02-18T09:41:24.727Z,13.40
2019-02-18T09:44:29.701Z,14.50
2019-02-18T09:47:34.765Z,16.40
2019-02-18T09:50:39.833Z,18.00
2019-02-18T09:53:44.968Z,19.70
2019-02-18T09:56:49.912Z,19.20
2019-02-18T09:59:54.977Z,18.10
2019-02-18T10:03:00.062Z,16.30
2019-02-18T10:06:05.075Z,15.10
2019-02-18T10:09:10.170Z,14.20
2019-02-18T10:12:18.227Z,13.40
2019-02-18T10:15:21.913Z,12.40
2019-02-18T10:18:26.917Z,11.10
2019-02-18T10:21:31.912Z,10.40
2019-02-18T10:24:36.959Z,9.90
2019-02-18T10:27:41.978Z,9.50
2019-02-18T10:30:46.900Z,9.50
2019-02-18T10:33:51.822Z,9.50
2019-02-18T10:36:56.764Z,9.30
2019-02-18T10:40:01.850Z,9.00
2019-02-18T10:43:06.858Z,8.90
2019-02-18T10:46:11.882Z,8.70
2019-02-18T10:49:20.439Z,9.60
2019-02-18T10:52:23.905Z,9.40
2019-02-18T10:55:28.853Z,9.50
2019-02-18T10:58:33.788Z,9.60
2019-02-18T11:01:39.201Z,9.40
2019-02-18T11:04:44.145Z,9.20
2019-02-18T11:07:49.057Z,9.00
2019-02-18T11:10:54.351Z,8.80
2019-02-18T11:13:59.415Z,8.90
2019-02-18T11:17:04.480Z,8.80
2019-02-18T11:20:10.190Z,8.80
2019-02-18T11:23:15.400Z,8.70
2019-02-18T11:26:21.074Z,9.10
2019-02-18T11:29:26.275Z,9.00
2019-02-18T11:32:31.858Z,9.30
2019-02-18T11:35:36.973Z,9.00
2019-02-18T11:38:42.041Z,8.60
2019-02-18T11:41:47.355Z,9.40
2019-02-18T11:44:52.457Z,9.00
2019-02-18T11:47:57.568Z,8.90
2019-02-18T11:51:02.662Z,8.70
2019-02-18T11:54:07.837Z,9.40
2019-02-18T11:57:13.017Z,9.20
2019-02-18T12:00:18.433Z,9.00
2019-02-18T12:03:23.685Z,9.00
2019-02-18T12:06:28.599Z,8.90
2019-02-18T12:09:33.756Z,9.10
2019-02-18T12:12:38.621Z,9.20
2019-02-18T12:15:44.274Z,8.80
2019-02-18T12:18:49.089Z,8.80
2019-02-18T12:21:54.411Z,8.80
2019-02-18T12:24:59.561Z,9.00
2019-02-18T12:28:04.717Z,8.90
2019-02-18T12:31:09.661Z,9.40
2019-02-18T12:34:14.478Z,9.30
2019-02-18T12:37:19.451Z,9.40
2019-02-18T12:40:24.608Z,9.70
2019-02-18T12:43:29.788Z,9.80
2019-02-18T12:46:35.065Z,9.50
2019-02-18T12:49:39.981Z,9.30
2019-02-18T12:52:45.043Z,8.80
2019-02-18T12:55:50.263Z,8.40
2019-02-18T12:58:55.313Z,9.10
2019-02-18T13:02:00.415Z,9.10
2019-02-18T13:05:06.792Z,8.70
2019-02-18T13:08:11.959Z,8.40
2019-02-18T13:11:16.947Z,8.30
2019-02-18T13:14:22.305Z,8.80
2019-02-18T13:17:27.409Z,8.60
2019-02-18T13:20:32.509Z,8.70
2019-02-18T13:23:37.529Z,8.60
2019-02-18T13:26:42.779Z,8.40
2019-02-18T13:29:47.776Z,8.20
2019-02-18T13:32:58.797Z,8.40
2019-02-18T13:36:05.473Z,8.70
2019-02-18T13:39:10.731Z,8.90
2019-02-18T13:42:15.894Z,9.00
2019-02-18T13:45:20.834Z,8.90
2019-02-18T13:48:44.639Z,8.60
2019-02-18T13:51:56.442Z,8.80
2019-02-18T13:54:56.882Z,9.20
2019-02-18T13:58:01.942Z,9.30
2019-02-18T14:01:07.563Z,9.30
2019-02-18T14:04:12.446Z,9.50
2019-02-18T14:07:17.657Z,10.50
2019-02-18T14:10:22.733Z,11.30
2019-02-18T14:13:27.730Z,12.50
2019-02-18T14:16:32.645Z,13.50
2019-02-18T14:19:37.615Z,14.60
2019-02-18T14:22:43.195Z,16.00
2019-02-18T14:25:48.713Z,17.90
2019-02-18T14:28:53.799Z,19.00
2019-02-18T14:31:58.876Z,20.10
2019-02-18T14:35:04.285Z,20.90
2019-02-18T14:38:09.534Z,21.50
2019-02-18T14:41:14.571Z,22.40
2019-02-18T14:44:19.538Z,23.20
2019-02-18T14:47:25.459Z,24.00
2019-02-18T14:50:30.556Z,24.90
2019-02-18T14:53:35.555Z,25.80
2019-02-18T14:56:41.020Z,26.30
2019-02-18T14:59:45.841Z,26.50
2019-02-18T15:02:52.677Z,27.30
2019-02-18T15:05:57.737Z,28.30
2019-02-18T15:09:03.407Z,28.70
2019-02-18T15:12:08.915Z,29.30
2019-02-18T15:15:14.722Z,29.60
2019-02-18T15:18:20.138Z,29.90
2019-02-18T15:21:25.133Z,30.20
2019-02-18T15:24:30.066Z,30.50
2019-02-18T15:27:35.000Z,30.80
2019-02-18T15:30:40.232Z,31.50
2019-02-18T15:33:45.553Z,32.30
2019-02-18T15:36:50.547Z,32.80
2019-02-18T15:39:55.646Z,32.90
2019-02-18T15:43:00.537Z,32.90
2019-02-18T15:46:05.888Z,32.80
2019-02-18T15:49:10.884Z,32.60
2019-02-18T15:52:16.420Z,32.60
2019-02-18T15:55:21.794Z,32.90
2019-02-18T15:58:26.812Z,33.10
2019-02-18T16:01:31.924Z,33.40
2019-02-18T16:04:36.955Z,33.70
2019-02-18T16:07:41.947Z,33.70
2019-02-18T16:10:46.950Z,33.80
2019-02-18T16:13:51.981Z,34.10
2019-02-18T16:16:56.915Z,34.20
2019-02-18T16:20:02.070Z,34.40
2019-02-18T16:23:07.005Z,34.80
2019-02-18T16:26:12.132Z,35.10
2019-02-18T16:29:17.072Z,35.10
2019-02-18T16:32:22.251Z,35.40
2019-02-18T16:35:27.286Z,35.80
2019-02-18T16:38:32.428Z,36.00
2019-02-18T16:41:37.321Z,36.40
2019-02-18T16:44:42.354Z,36.90
2019-02-18T16:47:47.333Z,37.10
2019-02-18T16:50:52.518Z,37.40
2019-02-18T16:53:57.904Z,37.60
2019-02-18T16:57:02.979Z,38.00
2019-02-18T17:00:16.123Z,38.10
2019-02-18T17:03:20.969Z,38.40
2019-02-18T17:06:26.033Z,38.70
2019-02-18T17:09:31.293Z,39.00
2019-02-18T17:12:36.215Z,39.20
2019-02-18T17:15:41.304Z,39.50
2019-02-18T17:18:46.350Z,39.70
2019-02-18T17:21:51.272Z,40.20
2019-02-18T17:24:56.585Z,40.60
2019-02-18T17:28:01.718Z,41.00
2019-02-18T17:31:06.582Z,41.60
2019-02-18T17:34:11.560Z,42.20
2019-02-18T17:37:16.766Z,42.40
2019-02-18T17:40:21.825Z,42.90
2019-02-18T17:43:27.036Z,43.20
2019-02-18T17:46:32.168Z,43.50
2019-02-18T17:49:37.120Z,43.90
2019-02-18T17:52:42.244Z,44.30
2019-02-18T17:55:47.113Z,44.50
2019-02-18T17:58:52.239Z,44.80
2019-02-18T18:01:57.309Z,45.10
2019-02-18T18:05:02.371Z,45.30
2019-02-18T18:08:07.364Z,45.70
2019-02-18T18:11:13.889Z,45.90
2019-02-18T18:14:19.894Z,46.00
2019-02-18T18:17:24.997Z,46.30
2019-02-18T18:20:30.034Z,46.60
2019-02-18T18:23:35.691Z,47.30
2019-02-18T18:26:40.569Z,47.30
2019-02-18T18:29:45.671Z,47.60
2019-02-18T18:32:50.942Z,47.70
2019-02-18T18:35:55.889Z,48.00
2019-02-18T18:39:00.829Z,48.20
2019-02-18T18:42:05.857Z,48.60
2019-02-18T18:45:12.041Z,48.90
2019-02-18T18:48:17.283Z,49.20
2019-02-18T18:51:22.494Z,49.50
2019-02-18T18:54:27.873Z,50.00
2019-02-18T18:57:32.961Z,50.20
2019-02-18T19:00:38.137Z,50.30
2019-02-18T19:03:43.089Z,50.20
2019-02-18T19:06:48.129Z,50.50
2019-02-18T19:09:53.060Z,51.80
2019-02-18T19:12:58.552Z,51.80
2019-02-18T19:16:03.641Z,52.00
2019-02-18T19:19:08.570Z,52.00
2019-02-18T19:22:13.648Z,52.50
2019-02-18T19:25:40.730Z,52.70
2019-02-18T19:28:46.561Z,53.00
2019-02-18T19:31:52.075Z,53.20
2019-02-18T19:34:57.104Z,53.80
2019-02-18T19:38:02.434Z,54.30
2019-02-18T19:41:07.521Z,54.50
2019-02-18T19:44:12.797Z,55.40
2019-02-18T19:47:18.125Z,55.00
2019-02-18T19:50:23.061Z,55.80
2019-02-18T19:53:28.151Z,55.50
2019-02-18T19:56:33.228Z,55.80
2019-02-18T19:59:38.333Z,56.00
2019-02-18T20:02:43.207Z,56.00
2019-02-18T20:05:48.556Z,56.00
2019-02-18T20:08:53.877Z,56.30
2019-02-18T20:11:58.708Z,56.50
2019-02-18T20:15:04.231Z,56.80
2019-02-18T20:18:09.325Z,57.10
2019-02-18T20:21:14.241Z,57.40
2019-02-18T20:24:19.419Z,57.90
2019-02-18T20:27:24.281Z,57.70
2019-02-18T20:30:29.407Z,57.60
2019-02-18T20:33:34.492Z,58.10
2019-02-18T20:36:39.622Z,58.50
2019-02-18T20:39:44.685Z,58.80
2019-02-18T20:42:49.619Z,59.10
2019-02-18T20:45:54.730Z,59.30
2019-02-18T20:49:00.047Z,59.80
2019-02-18T20:52:05.024Z,59.80
2019-02-18T20:55:11.105Z,59.80
2019-02-18T20:58:19.252Z,60.00
2019-02-18T21:01:24.024Z,60.30
2019-02-18T21:04:28.747Z,60.60
2019-02-18T21:07:33.453Z,60.50
2019-02-18T21:10:38.224Z,60.60
2019-02-18T21:13:43.376Z,60.60
2019-02-18T21:16:48.355Z,60.60
2019-02-18T21:19:53.691Z,60.80
2019-02-18T21:22:59.012Z,61.10
2019-02-18T21:26:04.133Z,61.30
2019-02-18T21:29:09.420Z,62.30
2019-02-18T21:32:17.120Z,61.80
2019-02-18T21:35:22.373Z,62.00
2019-02-18T21:38:27.302Z,62.00
2019-02-18T21:41:32.322Z,62.60
2019-02-18T21:44:37.431Z,62.70
2019-02-18T21:47:42.486Z,62.70
2019-02-18T21:50:48.531Z,63.00
2019-02-18T21:53:53.477Z,62.80
2019-02-18T21:56:58.545Z,62.70
2019-02-18T22:00:05.595Z,62.90
2019-02-18T22:03:10.351Z,62.90
2019-02-18T22:06:15.073Z,62.70
2019-02-18T22:09:20.103Z,62.50
2019-02-18T22:12:25.098Z,62.90
2019-02-18T22:15:29.997Z,63.10
2019-02-18T22:18:35.455Z,63.40
2019-02-18T22:21:40.379Z,63.40
2019-02-18T22:24:45.358Z,63.90
2019-02-18T22:27:50.358Z,63.80
2019-02-18T22:30:55.433Z,63.80
2019-02-18T22:34:00.450Z,63.90
2019-02-18T22:37:05.530Z,64.00
2019-02-18T22:40:10.792Z,63.80
2019-02-18T22:43:15.859Z,63.90
2019-02-18T22:46:20.801Z,64.10
2019-02-18T22:49:25.881Z,64.60
2019-02-18T22:52:30.806Z,64.60
2019-02-18T22:55:35.664Z,64.60
2019-02-18T22:58:40.551Z,64.40
2019-02-18T23:01:45.736Z,64.50
2019-02-18T23:04:51.321Z,64.60
2019-02-18T23:07:56.313Z,64.80
2019-02-18T23:11:01.406Z,64.90
2019-02-18T23:14:06.884Z,65.30
2019-02-18T23:17:11.978Z,65.40
2019-02-18T23:20:16.994Z,65.30
2019-02-18T23:23:22.501Z,65.40
2019-02-18T23:26:27.573Z,65.30
2019-02-18T23:29:32.794Z,65.50
2019-02-18T23:32:37.972Z,65.60
2019-02-18T23:35:42.977Z,65.60
2019-02-18T23:38:47.704Z,65.90
2019-02-18T23:41:52.631Z,66.20
2019-02-18T23:44:59.472Z,66.30
2019-02-18T23:48:04.243Z,66.50
2019-02-18T23:51:09.418Z,66.80
2019-02-18T23:54:14.624Z,66.80
2019-02-18T23:57:19.646Z,66.70
